createdAt,value
2023-03-29T00:00:35.919Z,1.80
2023-03-29T00:03:05.362Z,1.90
2023-03-29T00:05:36.782Z,1.80
2023-03-29T00:08:04.251Z,1.88
2023-03-29T00:10:33.777Z,2.03
2023-03-29T00:13:03.152Z,2.28
2023-03-29T00:15:39.822Z,2.20
2023-03-29T00:18:06.439Z,1.60
2023-03-29T00:20:37.522Z,1.73
2023-03-29T00:23:09.190Z,1.70
2023-03-29T00:25:37.840Z,2.17
2023-03-29T00:28:06.656Z,1.80
2023-03-29T00:30:38.463Z,1.88
2023-03-29T00:33:05.072Z,1.83
2023-03-29T00:35:31.701Z,2.00
2023-03-29T00:37:58.306Z,2.03
2023-03-29T00:40:27.080Z,1.83
2023-03-29T00:42:55.723Z,1.88
2023-03-29T00:45:27.113Z,2.20
2023-03-29T00:48:02.621Z,2.00
2023-03-29T00:50:37.981Z,2.40
2023-03-29T00:53:12.468Z,1.50
2023-03-29T00:55:48.001Z,1.80
2023-03-29T00:58:23.435Z,1.55
2023-03-29T01:01:02.171Z,1.40
2023-03-29T01:03:38.001Z,1.80
2023-03-29T01:06:10.656Z,2.00
2023-03-29T01:08:45.301Z,1.77
2023-03-29T01:11:14.772Z,1.65
2023-03-29T01:13:49.118Z,2.07
2023-03-29T01:16:19.264Z,1.70
2023-03-29T01:18:47.057Z,1.70
2023-03-29T01:21:29.340Z,2.10
2023-03-29T01:24:24.944Z,1.50
2023-03-29T01:27:22.742Z,1.70
2023-03-29T01:29:57.273Z,1.30
2023-03-29T01:32:35.362Z,1.25
2023-03-29T01:35:11.769Z,1.95
2023-03-29T01:37:49.807Z,1.65
2023-03-29T01:40:16.605Z,1.50
2023-03-29T01:43:12.376Z,1.50
2023-03-29T01:45:49.199Z,1.77
2023-03-29T01:48:30.306Z,3.20
2023-03-29T01:51:04.620Z,3.25
2023-03-29T01:53:41.212Z,2.80
2023-03-29T01:56:12.543Z,2.90
2023-03-29T01:58:45.259Z,2.95
2023-03-29T02:01:18.628Z,1.90
2023-03-29T02:03:54.661Z,1.83
2023-03-29T02:06:24.463Z,2.23
2023-03-29T02:08:53.104Z,1.88
2023-03-29T02:11:23.328Z,2.25
2023-03-29T02:13:49.837Z,2.10
2023-03-29T02:16:19.087Z,2.13
2023-03-29T02:18:53.151Z,1.60
2023-03-29T02:21:32.770Z,2.03
2023-03-29T02:24:06.516Z,1.90
2023-03-29T02:26:36.172Z,2.03
2023-03-29T02:29:03.396Z,2.00
2023-03-29T02:31:45.350Z,1.60
2023-03-29T02:34:28.835Z,1.65
2023-03-29T02:37:03.890Z,1.88
2023-03-29T02:39:37.314Z,1.90
2023-03-29T02:42:05.316Z,1.63
2023-03-29T02:44:37.934Z,1.60
2023-03-29T02:47:12.352Z,2.10
2023-03-29T02:49:39.108Z,1.60
2023-03-29T02:52:12.628Z,1.70
2023-03-29T02:54:43.385Z,1.80
2023-03-29T02:57:10.686Z,1.70
2023-03-29T02:59:38.651Z,1.55
2023-03-29T03:02:07.471Z,1.70
2023-03-29T03:04:35.639Z,1.50
2023-03-29T03:07:09.976Z,1.98
2023-03-29T03:09:41.237Z,2.03
2023-03-29T03:12:08.493Z,1.85
2023-03-29T03:14:38.053Z,1.38
2023-03-29T03:17:04.861Z,1.92
2023-03-29T03:19:33.859Z,1.73
2023-03-29T03:22:05.912Z,1.77
2023-03-29T03:24:35.501Z,1.92
2023-03-29T03:27:02.124Z,1.90
2023-03-29T03:29:31.248Z,2.10
2023-03-29T03:31:57.789Z,1.65
2023-03-29T03:34:26.599Z,1.40
2023-03-29T03:36:55.453Z,1.65
2023-03-29T03:39:24.562Z,1.77
2023-03-29T03:41:53.542Z,1.90
2023-03-29T03:44:22.539Z,1.80
2023-03-29T03:46:49.172Z,1.57
2023-03-29T03:49:16.588Z,1.88
2023-03-29T03:51:45.591Z,1.60
2023-03-29T03:54:17.217Z,1.33
2023-03-29T03:56:46.097Z,1.70
2023-03-29T03:59:12.668Z,1.50
2023-03-29T04:01:46.764Z,1.50
2023-03-29T04:04:16.558Z,1.65
2023-03-29T04:06:44.168Z,1.30
2023-03-29T04:09:15.517Z,1.90
2023-03-29T04:11:42.163Z,1.50
2023-03-29T04:14:09.448Z,1.60
2023-03-29T04:16:36.847Z,1.58
2023-03-29T04:19:05.734Z,1.95
2023-03-29T04:21:33.911Z,1.60
2023-03-29T04:24:00.579Z,1.40
2023-03-29T04:26:30.364Z,1.90
2023-03-29T04:28:59.403Z,1.80
2023-03-29T04:31:28.452Z,1.77
2023-03-29T04:34:00.332Z,1.60
2023-03-29T04:36:27.096Z,1.57
2023-03-29T04:38:56.274Z,1.67
2023-03-29T04:41:23.789Z,1.50
2023-03-29T04:43:50.568Z,1.58
2023-03-29T04:46:19.354Z,1.67
2023-03-29T04:48:50.707Z,1.73
2023-03-29T04:51:22.113Z,1.48
2023-03-29T04:53:50.906Z,1.40
2023-03-29T04:56:17.610Z,1.45
2023-03-29T04:58:44.619Z,1.60
2023-03-29T05:01:11.396Z,1.30
2023-03-29T05:03:38.054Z,1.25
2023-03-29T05:06:12.641Z,1.17
2023-03-29T05:08:40.577Z,1.23
2023-03-29T05:11:08.998Z,1.55
2023-03-29T05:13:36.198Z,1.47
2023-03-29T05:16:07.964Z,1.27
2023-03-29T05:18:34.691Z,1.42
2023-03-29T05:21:01.707Z,1.50
2023-03-29T05:23:28.940Z,1.70
2023-03-29T05:25:55.544Z,1.30
2023-03-29T05:28:22.452Z,1.38
2023-03-29T05:31:00.100Z,1.42
2023-03-29T05:33:30.835Z,1.30
2023-03-29T05:36:01.915Z,1.25
2023-03-29T05:38:29.764Z,1.50
2023-03-29T05:41:02.348Z,1.55
2023-03-29T05:43:29.470Z,1.20
2023-03-29T05:45:56.767Z,1.70
2023-03-29T05:48:26.998Z,1.40
2023-03-29T05:50:57.857Z,1.43
2023-03-29T05:53:27.155Z,1.60
2023-03-29T05:55:54.207Z,1.20
2023-03-29T05:58:23.405Z,1.33
2023-03-29T06:00:50.150Z,1.05
2023-03-29T06:03:22.123Z,1.43
2023-03-29T06:06:02.472Z,1.38
2023-03-29T06:08:29.478Z,1.50
2023-03-29T06:11:04.918Z,1.40
2023-03-29T06:13:34.759Z,1.50
2023-03-29T06:16:01.521Z,1.60
2023-03-29T06:18:28.166Z,1.38
2023-03-29T06:20:54.774Z,1.40
2023-03-29T06:23:23.129Z,1.40
2023-03-29T06:25:51.546Z,1.40
2023-03-29T06:28:19.300Z,1.47
2023-03-29T06:30:49.738Z,1.60
2023-03-29T06:33:22.465Z,1.60
2023-03-29T06:35:53.645Z,1.55
2023-03-29T06:38:23.243Z,1.27
2023-03-29T06:40:49.940Z,1.37
2023-03-29T06:43:18.777Z,1.13
2023-03-29T06:45:45.360Z,1.88
2023-03-29T06:48:12.305Z,1.60
2023-03-29T06:50:38.949Z,1.42
2023-03-29T06:53:07.608Z,1.43
2023-03-29T06:55:34.527Z,1.35
2023-03-29T06:58:04.249Z,1.30
2023-03-29T07:00:35.832Z,1.48
2023-03-29T07:03:06.759Z,1.50
2023-03-29T07:05:41.014Z,1.60
2023-03-29T07:08:14.049Z,1.58
2023-03-29T07:10:47.521Z,1.52
2023-03-29T07:13:15.609Z,1.88
2023-03-29T07:15:45.845Z,1.90
2023-03-29T07:18:15.494Z,1.60
2023-03-29T07:20:44.682Z,1.70
2023-03-29T07:23:13.531Z,1.40
2023-03-29T07:25:42.446Z,1.52
2023-03-29T07:28:11.452Z,1.58
2023-03-29T07:30:40.642Z,1.30
2023-03-29T07:33:07.208Z,1.30
2023-03-29T07:35:33.926Z,1.30
2023-03-29T07:38:00.552Z,1.30
2023-03-29T07:40:27.273Z,1.15
2023-03-29T07:42:56.812Z,1.63
2023-03-29T07:45:28.176Z,1.40
2023-03-29T07:47:57.676Z,1.40
2023-03-29T07:50:27.541Z,1.10
2023-03-29T07:52:54.478Z,1.20
2023-03-29T07:55:23.670Z,1.40
2023-03-29T07:57:50.318Z,1.45
2023-03-29T08:00:18.955Z,1.13
2023-03-29T08:02:47.898Z,1.13
2023-03-29T08:05:26.122Z,1.10
2023-03-29T08:08:00.919Z,1.27
2023-03-29T08:10:34.267Z,1.10
2023-03-29T08:13:04.016Z,1.40
2023-03-29T08:15:33.774Z,1.20
2023-03-29T08:18:00.396Z,1.50
2023-03-29T08:20:27.544Z,1.40
2023-03-29T08:22:57.172Z,1.58
2023-03-29T08:25:23.771Z,1.10
2023-03-29T08:27:50.382Z,1.58
2023-03-29T08:30:17.372Z,1.38
2023-03-29T08:32:44.860Z,1.23
2023-03-29T08:35:15.413Z,1.23
2023-03-29T08:37:42.198Z,1.10
2023-03-29T08:40:17.720Z,1.30
2023-03-29T08:42:53.526Z,1.10
2023-03-29T08:45:26.005Z,1.27
2023-03-29T08:48:08.416Z,1.63
2023-03-29T08:50:48.065Z,1.90
2023-03-29T08:53:28.220Z,1.33
2023-03-29T08:55:59.802Z,1.30
2023-03-29T08:58:31.535Z,1.40
2023-03-29T09:01:04.310Z,1.20
2023-03-29T09:03:40.020Z,1.40
2023-03-29T09:06:11.133Z,1.30
2023-03-29T09:08:46.368Z,1.40
2023-03-29T09:11:28.842Z,1.43
2023-03-29T09:14:07.555Z,1.30
2023-03-29T09:17:17.519Z,1.30
2023-03-29T09:20:21.792Z,1.45
2023-03-29T09:23:28.494Z,1.27
2023-03-29T09:26:03.894Z,1.00
2023-03-29T09:28:37.531Z,1.20
2023-03-29T09:31:13.768Z,1.40
2023-03-29T09:33:45.059Z,1.00
2023-03-29T09:36:25.714Z,0.90
2023-03-29T09:38:55.911Z,1.07
2023-03-29T09:41:38.846Z,1.02
2023-03-29T09:44:30.111Z,1.00
2023-03-29T09:47:09.919Z,1.27
2023-03-29T09:49:42.493Z,1.67
2023-03-29T09:52:13.764Z,2.63
2023-03-29T09:54:40.833Z,1.40
2023-03-29T09:57:12.168Z,1.60
2023-03-29T09:59:39.562Z,1.00
2023-03-29T10:02:09.416Z,1.30
2023-03-29T10:04:42.958Z,1.00
2023-03-29T10:07:18.128Z,1.00
2023-03-29T10:09:46.419Z,0.95
2023-03-29T10:12:13.958Z,1.15
2023-03-29T10:14:53.861Z,0.93
2023-03-29T10:17:34.205Z,1.07
2023-03-29T10:20:08.826Z,1.20
2023-03-29T10:22:40.816Z,0.75
2023-03-29T10:25:15.310Z,0.90
2023-03-29T10:27:43.933Z,1.20
2023-03-29T10:30:27.154Z,1.07
2023-03-29T10:32:59.848Z,0.90
2023-03-29T10:35:41.939Z,1.20
2023-03-29T10:38:15.151Z,0.90
2023-03-29T10:40:47.296Z,0.80
2023-03-29T10:43:17.017Z,1.10
2023-03-29T10:45:48.189Z,0.80
2023-03-29T10:48:20.261Z,1.30
2023-03-29T10:50:53.260Z,0.90
2023-03-29T10:53:26.983Z,1.10
2023-03-29T10:56:32.060Z,1.00
2023-03-29T10:59:28.424Z,1.05
2023-03-29T11:02:13.363Z,0.90
2023-03-29T11:05:09.229Z,1.13
2023-03-29T11:07:58.441Z,1.52
2023-03-29T11:10:30.886Z,1.40
2023-03-29T11:13:22.125Z,0.80
2023-03-29T11:16:00.871Z,0.80
2023-03-29T11:18:45.850Z,1.13
2023-03-29T11:21:24.525Z,0.73
2023-03-29T11:24:30.719Z,0.70
2023-03-29T11:27:16.029Z,0.88
2023-03-29T11:30:02.404Z,0.70
2023-03-29T11:32:31.584Z,0.90
2023-03-29T11:35:03.873Z,0.77
2023-03-29T11:37:48.747Z,0.90
2023-03-29T11:40:49.065Z,1.02
2023-03-29T11:43:21.720Z,0.70
2023-03-29T11:46:26.351Z,0.85
2023-03-29T11:48:57.982Z,1.23
2023-03-29T11:52:03.129Z,0.80
2023-03-29T11:54:45.465Z,0.85
2023-03-29T11:57:25.093Z,1.05
2023-03-29T12:00:05.966Z,0.80
2023-03-29T12:02:49.684Z,0.93
2023-03-29T12:05:22.287Z,1.23
2023-03-29T12:07:53.857Z,0.60
2023-03-29T12:10:24.056Z,0.70
2023-03-29T12:13:14.343Z,0.60
2023-03-29T12:15:48.280Z,0.70
2023-03-29T12:18:17.690Z,0.93
2023-03-29T12:20:48.544Z,0.88
2023-03-29T12:23:16.243Z,1.17
2023-03-29T12:26:02.468Z,0.65
2023-03-29T12:29:08.320Z,0.70
2023-03-29T12:31:53.187Z,0.90
2023-03-29T12:34:36.230Z,0.85
2023-03-29T12:37:08.134Z,0.80
2023-03-29T12:39:41.452Z,0.70
2023-03-29T12:42:21.033Z,0.80
2023-03-29T12:44:58.713Z,1.17
2023-03-29T12:47:33.946Z,0.70
2023-03-29T12:50:04.719Z,0.70
2023-03-29T12:52:41.547Z,0.77
2023-03-29T12:55:49.372Z,1.00
2023-03-29T12:58:24.926Z,0.67
2023-03-29T13:01:23.686Z,1.00
2023-03-29T13:03:55.754Z,0.70
2023-03-29T13:06:54.210Z,0.70
2023-03-29T13:09:30.047Z,0.90
2023-03-29T13:12:11.724Z,0.80
2023-03-29T13:14:43.166Z,0.90
2023-03-29T13:17:27.301Z,0.70
2023-03-29T13:20:33.333Z,0.80
2023-03-29T13:23:29.734Z,0.90
2023-03-29T13:26:21.541Z,0.70
2023-03-29T13:29:20.327Z,0.90
2023-03-29T13:32:27.650Z,0.70
2023-03-29T13:35:15.694Z,0.82
2023-03-29T13:38:05.389Z,1.00
2023-03-29T13:40:42.132Z,0.60
2023-03-29T13:43:22.691Z,0.73
2023-03-29T13:45:58.529Z,0.70
2023-03-29T13:48:33.715Z,1.85
2023-03-29T13:51:18.695Z,0.90
2023-03-29T13:54:00.718Z,0.87
2023-03-29T13:56:34.580Z,0.80
2023-03-29T13:59:17.856Z,0.95
2023-03-29T14:01:57.919Z,0.90
2023-03-29T14:04:30.417Z,0.82
2023-03-29T14:07:00.502Z,0.80
2023-03-29T14:09:36.165Z,1.05
2023-03-29T14:12:05.265Z,1.10
2023-03-29T14:14:35.174Z,0.90
2023-03-29T14:17:02.846Z,0.80
2023-03-29T14:19:32.552Z,1.00
2023-03-29T14:22:03.546Z,1.20
2023-03-29T14:24:49.299Z,1.10
2023-03-29T14:27:16.701Z,1.00
2023-03-29T14:29:47.476Z,0.63
2023-03-29T14:32:22.426Z,1.00
2023-03-29T14:34:53.068Z,0.90
2023-03-29T14:37:28.877Z,1.00
2023-03-29T14:39:59.677Z,1.20
2023-03-29T14:42:29.118Z,1.00
2023-03-29T14:45:06.424Z,1.07
2023-03-29T14:47:34.052Z,0.88
2023-03-29T14:50:06.180Z,0.85
2023-03-29T14:52:34.591Z,0.85
2023-03-29T14:55:02.310Z,1.10
2023-03-29T14:57:34.456Z,1.00
2023-03-29T15:00:17.338Z,1.17
2023-03-29T15:03:17.723Z,0.70
2023-03-29T15:05:52.001Z,0.80
2023-03-29T15:08:32.373Z,0.85
2023-03-29T15:11:02.868Z,1.00
2023-03-29T15:13:31.890Z,0.85
2023-03-29T15:16:05.175Z,0.88
2023-03-29T15:18:41.955Z,0.82
2023-03-29T15:21:10.733Z,1.10
2023-03-29T15:23:47.993Z,1.30
2023-03-29T15:26:14.596Z,0.90
2023-03-29T15:28:55.731Z,1.00
2023-03-29T15:31:33.146Z,0.70
2023-03-29T15:34:09.509Z,0.95
2023-03-29T15:36:42.293Z,0.80
2023-03-29T15:39:20.317Z,1.23
2023-03-29T15:41:49.689Z,1.00
2023-03-29T15:44:17.622Z,1.05
2023-03-29T15:46:46.673Z,0.80
2023-03-29T15:49:14.087Z,1.33
2023-03-29T15:51:46.112Z,0.80
2023-03-29T15:54:12.657Z,0.88
2023-03-29T15:56:48.486Z,1.10
2023-03-29T15:59:18.076Z,1.15
2023-03-29T16:01:47.955Z,0.80
2023-03-29T16:04:19.525Z,1.00
2023-03-29T16:06:52.810Z,2.25
2023-03-29T16:09:23.322Z,2.20
2023-03-29T16:11:52.136Z,1.10
2023-03-29T16:14:27.661Z,1.10
2023-03-29T16:16:58.269Z,0.90
2023-03-29T16:19:31.375Z,0.98
2023-03-29T16:22:02.264Z,0.63
2023-03-29T16:24:32.061Z,1.48
2023-03-29T16:26:59.291Z,1.00
2023-03-29T16:29:28.333Z,1.27
2023-03-29T16:31:58.133Z,0.98
2023-03-29T16:34:27.163Z,1.23
2023-03-29T16:36:53.921Z,1.40
2023-03-29T16:39:20.860Z,0.80
2023-03-29T16:41:49.026Z,0.70
2023-03-29T16:44:19.582Z,0.88
2023-03-29T16:46:48.379Z,0.90
2023-03-29T16:49:19.417Z,1.05
2023-03-29T16:51:47.201Z,1.17
2023-03-29T16:54:15.367Z,1.60
2023-03-29T16:56:42.012Z,21.23
2023-03-29T16:59:12.012Z,20.85
2023-03-29T17:01:38.715Z,13.27
2023-03-29T17:04:05.516Z,7.63
2023-03-29T17:06:36.965Z,6.43
2023-03-29T17:09:07.388Z,1.55
2023-03-29T17:11:36.494Z,1.00
2023-03-29T17:14:03.291Z,1.35
2023-03-29T17:16:33.072Z,1.00
2023-03-29T17:19:01.935Z,1.25
2023-03-29T17:21:29.628Z,1.13
2023-03-29T17:23:56.437Z,0.90
2023-03-29T17:26:26.055Z,0.98
2023-03-29T17:28:55.131Z,1.30
2023-03-29T17:31:24.018Z,0.93
2023-03-29T17:33:52.797Z,0.85
2023-03-29T17:36:23.850Z,2.08
2023-03-29T17:38:54.753Z,1.60
2023-03-29T17:41:21.546Z,1.50
2023-03-29T17:43:51.037Z,1.25
2023-03-29T17:46:22.689Z,1.10
2023-03-29T17:48:51.710Z,1.00
2023-03-29T17:51:23.628Z,1.23
2023-03-29T17:53:52.414Z,1.20
2023-03-29T17:56:22.833Z,1.10
2023-03-29T17:58:50.994Z,1.23
2023-03-29T18:01:20.427Z,1.42
2023-03-29T18:03:48.517Z,1.40
2023-03-29T18:06:18.187Z,1.30
2023-03-29T18:08:45.386Z,1.23
2023-03-29T18:11:17.293Z,0.90
2023-03-29T18:13:48.868Z,1.15
2023-03-29T18:16:15.850Z,0.70
2023-03-29T18:18:43.624Z,1.20
2023-03-29T18:21:10.870Z,1.10
2023-03-29T18:23:43.086Z,1.20
2023-03-29T18:26:12.786Z,1.10
2023-03-29T18:28:43.935Z,1.40
2023-03-29T18:31:10.589Z,1.20
2023-03-29T18:33:41.709Z,1.27
2023-03-29T18:36:12.652Z,1.15
2023-03-29T18:38:40.653Z,1.10
2023-03-29T18:41:12.183Z,1.52
2023-03-29T18:43:40.197Z,1.00
2023-03-29T18:46:08.034Z,0.82
2023-03-29T18:48:42.279Z,1.25
2023-03-29T18:51:12.678Z,1.27
2023-03-29T18:53:41.686Z,1.23
2023-03-29T18:56:08.605Z,1.10
2023-03-29T18:58:40.038Z,1.25
2023-03-29T19:01:06.798Z,0.90
2023-03-29T19:03:34.653Z,0.90
2023-03-29T19:06:02.400Z,1.23
2023-03-29T19:08:32.964Z,1.10
2023-03-29T19:11:07.472Z,1.67
2023-03-29T19:13:34.538Z,1.83
2023-03-29T19:16:01.317Z,0.90
2023-03-29T19:18:28.369Z,1.15
2023-03-29T19:20:55.045Z,1.00
2023-03-29T19:23:23.124Z,1.38
2023-03-29T19:26:00.041Z,1.20
2023-03-29T19:28:36.597Z,1.02
2023-03-29T19:31:04.363Z,1.10
2023-03-29T19:33:34.283Z,1.20
2023-03-29T19:36:01.643Z,1.23
2023-03-29T19:38:28.624Z,1.15
2023-03-29T19:40:55.276Z,1.20
2023-03-29T19:43:27.100Z,1.10
2023-03-29T19:45:53.742Z,1.80
2023-03-29T19:48:22.966Z,1.13
2023-03-29T19:50:50.437Z,0.90
2023-03-29T19:53:17.214Z,1.00
2023-03-29T19:55:45.401Z,0.80
2023-03-29T19:58:12.595Z,1.30
2023-03-29T20:00:41.823Z,1.00
2023-03-29T20:03:13.998Z,1.27
2023-03-29T20:05:41.159Z,1.08
2023-03-29T20:08:12.558Z,1.20
2023-03-29T20:10:43.762Z,0.97
2023-03-29T20:13:10.646Z,0.90
2023-03-29T20:15:40.213Z,1.20
2023-03-29T20:18:06.946Z,1.05
2023-03-29T20:20:35.755Z,1.30
2023-03-29T20:23:05.226Z,1.17
2023-03-29T20:25:36.241Z,1.30
2023-03-29T20:28:07.377Z,1.05
2023-03-29T20:30:37.322Z,1.13
2023-03-29T20:33:07.466Z,1.25
2023-03-29T20:35:34.120Z,1.30
2023-03-29T20:38:00.720Z,1.23
2023-03-29T20:40:31.569Z,2.05
2023-03-29T20:42:58.198Z,1.17
2023-03-29T20:45:25.690Z,1.50
2023-03-29T20:48:02.063Z,1.20
2023-03-29T20:50:29.516Z,1.40
2023-03-29T20:53:03.793Z,1.08
2023-03-29T20:55:33.183Z,1.30
2023-03-29T20:58:02.917Z,1.00
2023-03-29T21:00:31.889Z,1.60
2023-03-29T21:03:01.348Z,1.25
2023-03-29T21:05:29.961Z,1.00
2023-03-29T21:07:57.037Z,1.20
2023-03-29T21:10:30.380Z,1.02
2023-03-29T21:13:02.569Z,1.10
2023-03-29T21:15:33.681Z,1.40
2023-03-29T21:18:00.252Z,1.70
2023-03-29T21:20:29.396Z,1.05
2023-03-29T21:22:58.991Z,2.00
2023-03-29T21:25:27.766Z,0.80
2023-03-29T21:27:56.797Z,0.90
2023-03-29T21:30:23.447Z,1.20
2023-03-29T21:32:52.320Z,1.27
2023-03-29T21:35:18.933Z,1.55
2023-03-29T21:37:45.505Z,1.97
2023-03-29T21:40:12.749Z,1.85
2023-03-29T21:42:41.766Z,1.13
2023-03-29T21:45:11.608Z,1.10
2023-03-29T21:47:38.248Z,1.13
2023-03-29T21:50:08.064Z,1.07
2023-03-29T21:52:34.905Z,0.98
2023-03-29T21:55:01.442Z,1.38
2023-03-29T21:57:30.342Z,1.35
2023-03-29T21:59:57.065Z,1.30
2023-03-29T22:02:25.932Z,1.20
2023-03-29T22:04:52.583Z,1.35
2023-03-29T22:07:22.809Z,1.15
2023-03-29T22:09:54.772Z,1.30
2023-03-29T22:12:26.994Z,1.40
2023-03-29T22:14:53.562Z,1.20
2023-03-29T22:17:20.093Z,1.25
2023-03-29T22:19:48.933Z,0.93
2023-03-29T22:22:15.595Z,1.20
2023-03-29T22:24:42.494Z,1.13
2023-03-29T22:27:13.438Z,1.40
2023-03-29T22:29:40.010Z,1.05
2023-03-29T22:32:07.007Z,1.20
2023-03-29T22:34:33.957Z,1.45
2023-03-29T22:37:03.106Z,1.25
2023-03-29T22:39:29.965Z,1.60
2023-03-29T22:42:01.276Z,1.33
2023-03-29T22:44:30.134Z,1.05
2023-03-29T22:46:56.725Z,1.20
2023-03-29T22:49:25.770Z,1.08
2023-03-29T22:51:54.584Z,1.23
2023-03-29T22:54:21.162Z,1.15
2023-03-29T22:56:47.902Z,1.15
2023-03-29T22:59:15.768Z,1.10
2023-03-29T23:01:42.443Z,1.10
2023-03-29T23:04:12.222Z,1.20
2023-03-29T23:06:44.042Z,1.77
2023-03-29T23:09:14.545Z,1.50
2023-03-29T23:11:42.924Z,1.40
2023-03-29T23:14:09.561Z,1.05
2023-03-29T23:16:36.969Z,1.40
2023-03-29T23:19:06.770Z,1.30
2023-03-29T23:21:37.054Z,1.10
2023-03-29T23:24:03.909Z,1.30
2023-03-29T23:26:35.703Z,1.20
2023-03-29T23:29:03.338Z,0.90
2023-03-29T23:31:33.779Z,1.27
2023-03-29T23:34:00.386Z,1.23
2023-03-29T23:36:31.476Z,1.20
2023-03-29T23:38:59.586Z,1.30
2023-03-29T23:41:30.934Z,1.67
2023-03-29T23:44:00.528Z,1.20
2023-03-29T23:46:27.110Z,1.30
2023-03-29T23:48:53.699Z,1.17
2023-03-29T23:51:28.078Z,1.02
2023-03-29T23:53:55.836Z,2.13
2023-03-29T23:56:23.062Z,1.10
2023-03-29T23:58:50.028Z,0.85
